首页
METAR-TAF:

METAR-TAF

机场 :

乌斯怀亚国际机场

乌斯怀亚, 阿根廷

纬度: 54-48S, 经度: 068-19W, 海拔: 16米

当前天气观测

该预报发布于23分钟前的21:00 UTC
静风
温度 4°C
湿度 60%
气压 982 hPa
能见度10公里或以上
少量云层高于1200英尺
散云层高于2500英尺
多云层高于4500英尺
附近有阵雨

METAR: SAWH 182100Z 00000KT 9999 VCSH FEW012 SCT025 BKN045 04/M03 Q0982

时间: 18:23 (21:23 UTC)

预报

该预报发布于4小时和23分钟前的17:00 UTC
预报有效从18日的 18点(UTC)到 19日的 18点(UTC)
风速20节,风向西北,有时为30节阵风
能见度10公里或以上
多云层高于4000英尺
多云层高于6000英尺
短暂存在
从 18日的 17点(UTC)到 18日的 20点(UTC)
风速35节,风向西转西北,有时为45节阵风

TAF: SAWH 181700Z 1818/1918 32020G30KT 9999 BKN040 BKN060 TX07/1818Z TNM01/1910Z TEMPO 1817/1820 29035G45KT

超过4000个机场的气象观测和天气预报(METAR&TAF报告)。

可查询的气象台以黄色和红色小点在地图上表示。

将鼠标移到小点上方,可查看气象台名称。

然后点击查看天气观测和预报。

如需切换地图:点击带黑十字的绿色按钮放大地图;点击带横线的绿色按钮缩小地图;或者点击绿色箭头查看邻近地区的地图。


METAR-TAF: